createdAt,value
2022-11-07T00:00:02.615Z,3.33
2022-11-07T00:02:28.959Z,3.25
2022-11-07T00:04:55.256Z,3.05
2022-11-07T00:07:21.595Z,3.28
2022-11-07T00:09:48.008Z,3.20
2022-11-07T00:12:14.432Z,2.95
2022-11-07T00:14:40.727Z,2.70
2022-11-07T00:17:08.289Z,2.95
2022-11-07T00:19:34.624Z,2.80
2022-11-07T00:22:00.999Z,2.97
2022-11-07T00:24:27.288Z,2.80
2022-11-07T00:26:53.851Z,3.35
2022-11-07T00:29:20.311Z,2.72
2022-11-07T00:31:46.987Z,3.00
2022-11-07T00:34:13.423Z,3.28
2022-11-07T00:36:39.730Z,3.33
2022-11-07T00:39:06.172Z,2.97
2022-11-07T00:43:59.232Z,3.53
2022-11-07T00:46:25.914Z,2.45
2022-11-07T00:48:52.228Z,3.03
2022-11-07T00:51:20.645Z,3.38
2022-11-07T00:53:46.976Z,3.13
2022-11-07T00:56:15.402Z,2.90
2022-11-07T00:58:42.732Z,3.05
2022-11-07T01:01:10.306Z,2.83
2022-11-07T01:03:55.572Z,3.22
2022-11-07T01:06:28.361Z,2.80
2022-11-07T01:08:56.493Z,2.70
2022-11-07T01:11:23.517Z,3.30
2022-11-07T01:16:16.300Z,2.88
2022-11-07T01:18:42.972Z,2.78
2022-11-07T01:21:15.153Z,3.25
2022-11-07T01:23:42.778Z,2.90
2022-11-07T01:26:10.181Z,3.17
2022-11-07T01:28:36.526Z,3.10
2022-11-07T01:31:03.850Z,3.30
2022-11-07T01:33:30.375Z,3.10
2022-11-07T01:36:05.748Z,3.20
2022-11-07T01:38:32.428Z,2.92
2022-11-07T01:41:17.555Z,3.42
2022-11-07T01:43:57.864Z,3.10
2022-11-07T01:46:31.068Z,2.90
2022-11-07T01:49:04.285Z,2.83
2022-11-07T01:51:32.246Z,3.17
2022-11-07T01:53:58.901Z,3.13
2022-11-07T01:56:27.061Z,2.97
2022-11-07T01:58:54.307Z,2.90
2022-11-07T02:01:20.972Z,2.58
2022-11-07T02:03:47.692Z,2.92
2022-11-07T02:06:17.326Z,2.58
2022-11-07T02:08:45.631Z,2.63
2022-11-07T02:11:13.267Z,3.08
2022-11-07T02:13:39.612Z,3.47
2022-11-07T02:16:06.200Z,2.75
2022-11-07T02:18:34.333Z,2.92
2022-11-07T02:21:03.549Z,3.10
2022-11-07T02:23:38.975Z,2.83
2022-11-07T02:26:05.658Z,2.92
2022-11-07T02:28:33.197Z,2.70
2022-11-07T02:30:59.711Z,3.38
2022-11-07T02:33:26.112Z,2.70
2022-11-07T02:35:52.994Z,3.30
2022-11-07T02:38:30.964Z,2.53
2022-11-07T02:41:00.241Z,2.67
2022-11-07T02:43:27.809Z,2.60
2022-11-07T02:45:55.116Z,2.90
2022-11-07T02:48:21.517Z,2.45
2022-11-07T02:50:47.832Z,3.00
2022-11-07T02:53:14.418Z,2.67
2022-11-07T02:55:41.097Z,2.63
2022-11-07T02:58:07.518Z,2.70
2022-11-07T03:00:33.881Z,2.60
2022-11-07T03:03:00.263Z,2.90
2022-11-07T03:05:26.603Z,3.00
2022-11-07T03:07:52.981Z,2.50
2022-11-07T03:10:19.310Z,2.55
2022-11-07T03:12:45.769Z,2.60
2022-11-07T03:15:13.107Z,2.67
2022-11-07T03:17:39.794Z,2.47
2022-11-07T03:20:06.529Z,2.58
2022-11-07T03:22:32.850Z,2.63
2022-11-07T03:24:59.180Z,2.63
2022-11-07T03:27:25.567Z,2.47
2022-11-07T03:29:51.847Z,2.70
2022-11-07T03:32:18.209Z,3.00
2022-11-07T03:34:44.521Z,2.30
2022-11-07T03:37:10.822Z,3.10
2022-11-07T03:39:37.155Z,2.30
2022-11-07T03:42:03.729Z,2.85
2022-11-07T03:44:30.316Z,2.20
2022-11-07T03:46:56.764Z,2.00
2022-11-07T03:49:23.161Z,2.30
2022-11-07T03:51:49.578Z,2.10
2022-11-07T03:54:16.091Z,2.17
2022-11-07T03:56:42.414Z,2.55
2022-11-07T03:59:08.819Z,2.35
2022-11-07T04:01:35.254Z,3.13
2022-11-07T04:04:01.714Z,2.20
2022-11-07T04:06:28.053Z,3.08
2022-11-07T04:08:54.549Z,2.22
2022-11-07T04:11:39.772Z,2.80
2022-11-07T04:14:24.835Z,2.08
2022-11-07T04:17:09.667Z,2.38
2022-11-07T04:19:35.999Z,2.22
2022-11-07T04:22:02.400Z,2.67
2022-11-07T04:24:28.741Z,2.13
2022-11-07T04:27:30.508Z,2.65
2022-11-07T04:29:56.825Z,2.40
2022-11-07T04:32:24.214Z,1.92
2022-11-07T04:34:53.475Z,2.92
2022-11-07T04:37:19.827Z,1.85
2022-11-07T04:39:46.273Z,2.13
2022-11-07T04:42:12.640Z,2.75
2022-11-07T04:44:39.129Z,1.98
2022-11-07T04:47:05.461Z,2.38
2022-11-07T04:49:31.797Z,2.72
2022-11-07T04:51:58.418Z,2.42
2022-11-07T04:54:24.741Z,2.38
2022-11-07T04:56:51.223Z,2.60
2022-11-07T04:59:17.665Z,2.10
2022-11-07T05:01:44.113Z,2.38
2022-11-07T05:04:10.843Z,2.63
2022-11-07T05:06:37.804Z,2.25
2022-11-07T05:11:30.362Z,3.70
2022-11-07T05:13:56.659Z,2.25
2022-11-07T05:16:23.184Z,2.22
2022-11-07T05:18:49.522Z,2.10
2022-11-07T05:21:16.026Z,2.30
2022-11-07T05:23:42.329Z,2.75
2022-11-07T05:26:09.427Z,3.05
2022-11-07T05:28:39.560Z,4.47
2022-11-07T05:31:07.003Z,5.18
2022-11-07T05:36:09.678Z,5.57
2022-11-07T05:38:36.462Z,3.88
2022-11-07T05:41:04.172Z,3.55
2022-11-07T05:45:23.464Z,2.90
2022-11-07T05:47:56.267Z,3.20
2022-11-07T05:50:22.507Z,3.20
2022-11-07T05:52:48.810Z,3.03
2022-11-07T05:55:15.328Z,2.63
2022-11-07T05:57:41.602Z,2.63
2022-11-07T06:00:08.218Z,5.22
2022-11-07T06:02:34.566Z,2.72
2022-11-07T06:05:00.903Z,2.95
2022-11-07T06:07:27.119Z,9.05
2022-11-07T06:09:53.534Z,3.90
2022-11-07T06:12:19.769Z,8.75
2022-11-07T06:14:46.044Z,3.65
2022-11-07T06:17:12.296Z,1.98
2022-11-07T06:19:38.597Z,2.92
2022-11-07T06:22:04.892Z,4.45
2022-11-07T06:24:31.148Z,5.15
2022-11-07T06:26:57.400Z,2.53
2022-11-07T06:29:23.639Z,2.40
2022-11-07T06:31:49.880Z,3.25
2022-11-07T06:34:16.152Z,3.25
2022-11-07T06:36:42.398Z,2.25
2022-11-07T06:39:08.605Z,2.78
2022-11-07T06:41:34.829Z,3.42
2022-11-07T06:44:01.109Z,2.58
2022-11-07T06:46:27.388Z,2.40
2022-11-07T06:48:54.367Z,3.00
2022-11-07T06:53:46.775Z,5.40
2022-11-07T06:56:14.269Z,2.63
2022-11-07T06:58:40.703Z,2.30
2022-11-07T07:01:13.479Z,2.60
2022-11-07T07:03:42.630Z,2.35
2022-11-07T07:06:15.957Z,2.50
2022-11-07T07:08:42.345Z,2.60
2022-11-07T07:11:09.669Z,2.97
2022-11-07T07:13:36.020Z,3.72
2022-11-07T07:16:02.368Z,7.03
2022-11-07T07:18:29.069Z,3.42
2022-11-07T07:21:01.515Z,2.72
2022-11-07T07:23:27.760Z,2.85
2022-11-07T07:25:54.122Z,4.00
2022-11-07T07:28:20.351Z,2.78
2022-11-07T07:30:51.672Z,3.03
2022-11-07T07:33:18.735Z,2.83
2022-11-07T07:35:45.478Z,2.80
2022-11-07T07:38:12.014Z,2.55
2022-11-07T07:40:38.453Z,2.13
2022-11-07T07:43:04.714Z,3.60
2022-11-07T07:45:30.951Z,2.75
2022-11-07T07:48:01.941Z,3.05
2022-11-07T07:50:28.192Z,2.45
2022-11-07T07:52:57.917Z,2.22
2022-11-07T07:55:24.329Z,2.60
2022-11-07T07:57:50.676Z,2.55
2022-11-07T08:00:17.141Z,2.30
2022-11-07T08:02:43.823Z,3.65
2022-11-07T08:05:11.121Z,3.00
2022-11-07T08:07:45.254Z,2.40
2022-11-07T08:10:39.482Z,2.42
2022-11-07T08:12:57.750Z,7.88
2022-11-07T08:15:23.993Z,3.95
2022-11-07T08:17:50.267Z,3.13
2022-11-07T08:20:19.496Z,5.53
2022-11-07T08:22:45.787Z,4.25
2022-11-07T08:25:12.066Z,2.40
2022-11-07T08:27:38.684Z,7.10
2022-11-07T08:30:07.100Z,3.58
2022-11-07T08:32:33.602Z,4.82
2022-11-07T08:34:59.835Z,4.95
2022-11-07T08:37:26.229Z,4.05
2022-11-07T08:39:52.512Z,3.60
2022-11-07T08:42:18.824Z,3.53
2022-11-07T08:44:45.173Z,3.53
2022-11-07T08:47:11.423Z,6.18
2022-11-07T08:49:37.632Z,3.95
2022-11-07T08:52:04.009Z,2.33
2022-11-07T08:54:30.277Z,2.38
2022-11-07T08:56:56.550Z,3.90
2022-11-07T08:59:23.056Z,2.95
2022-11-07T09:02:27.948Z,3.13
2022-11-07T09:04:35.585Z,3.35
2022-11-07T09:07:01.868Z,4.45
2022-11-07T09:09:28.534Z,4.13
2022-11-07T09:11:54.763Z,4.10
2022-11-07T09:14:21.069Z,2.70
2022-11-07T09:16:47.320Z,2.92
2022-11-07T09:19:13.744Z,2.45
2022-11-07T09:21:40.295Z,2.78
2022-11-07T09:24:07.914Z,2.72
2022-11-07T09:26:34.149Z,1.90
2022-11-07T09:29:01.468Z,3.58
2022-11-07T09:31:27.821Z,3.00
2022-11-07T09:33:54.165Z,2.88
2022-11-07T09:36:22.064Z,5.68
2022-11-07T09:38:48.324Z,4.53
2022-11-07T09:41:32.886Z,4.35
2022-11-07T09:44:05.221Z,2.78
2022-11-07T09:46:47.061Z,2.33
2022-11-07T09:49:16.063Z,2.42
2022-11-07T09:52:03.255Z,1.90
2022-11-07T09:54:31.303Z,2.33
2022-11-07T09:56:59.447Z,2.40
2022-11-07T09:59:33.291Z,1.90
2022-11-07T10:01:59.598Z,3.08
2022-11-07T10:04:26.931Z,1.85
2022-11-07T10:07:00.343Z,2.33
2022-11-07T10:09:45.160Z,3.75
2022-11-07T10:12:20.559Z,2.28
2022-11-07T10:14:52.778Z,1.70
2022-11-07T10:17:39.465Z,2.50
2022-11-07T10:20:21.890Z,2.30
2022-11-07T10:23:01.260Z,1.98
2022-11-07T10:25:45.611Z,2.15
2022-11-07T10:28:20.830Z,2.03
2022-11-07T10:30:54.343Z,2.95
2022-11-07T10:33:36.421Z,2.33
2022-11-07T10:36:11.412Z,2.10
2022-11-07T10:38:40.253Z,2.30
2022-11-07T10:41:13.477Z,2.30
2022-11-07T10:43:40.290Z,2.78
2022-11-07T10:46:13.660Z,2.60
2022-11-07T10:48:50.081Z,1.70
2022-11-07T10:51:16.318Z,3.00
2022-11-07T10:53:43.720Z,2.90
2022-11-07T10:56:10.947Z,2.42
2022-11-07T10:58:42.713Z,2.53
2022-11-07T11:01:10.045Z,2.55
2022-11-07T11:03:45.330Z,1.85
2022-11-07T11:06:18.192Z,2.20
2022-11-07T11:08:48.578Z,2.65
2022-11-07T11:11:20.846Z,2.00
2022-11-07T11:13:48.104Z,2.15
2022-11-07T11:16:15.325Z,2.20
2022-11-07T11:18:55.627Z,2.78
2022-11-07T11:21:22.765Z,2.05
2022-11-07T11:23:49.547Z,2.08
2022-11-07T11:26:21.827Z,2.20
2022-11-07T11:29:00.005Z,2.10
2022-11-07T11:31:41.521Z,2.47
2022-11-07T11:34:16.520Z,2.70
2022-11-07T11:36:47.159Z,1.88
2022-11-07T11:39:26.127Z,2.35
2022-11-07T11:41:56.579Z,2.50
2022-11-07T11:44:31.878Z,2.53
2022-11-07T11:47:10.529Z,2.45
2022-11-07T11:49:58.998Z,2.58
2022-11-07T11:52:25.927Z,2.30
2022-11-07T11:57:24.051Z,3.70
2022-11-07T11:59:58.678Z,2.13
2022-11-07T12:02:30.986Z,2.60
2022-11-07T12:05:15.850Z,2.15
2022-11-07T12:07:42.100Z,2.38
2022-11-07T12:10:13.124Z,2.92
2022-11-07T12:12:49.612Z,2.20
2022-11-07T12:15:30.940Z,1.88
2022-11-07T12:18:09.548Z,2.75
2022-11-07T12:20:45.407Z,1.90
2022-11-07T12:23:21.788Z,2.08
2022-11-07T12:25:58.285Z,1.67
2022-11-07T12:28:36.824Z,2.25
2022-11-07T12:31:12.387Z,1.80
2022-11-07T12:33:44.332Z,1.88
2022-11-07T12:36:13.361Z,2.15
2022-11-07T12:38:58.250Z,2.00
2022-11-07T12:41:43.303Z,2.40
2022-11-07T12:44:24.921Z,1.48
2022-11-07T12:46:52.754Z,1.85
2022-11-07T12:49:25.201Z,2.35
2022-11-07T12:52:10.792Z,2.80
2022-11-07T12:54:39.955Z,2.35
2022-11-07T12:57:17.794Z,1.90
2022-11-07T12:59:47.524Z,2.00
2022-11-07T13:02:43.431Z,1.90
2022-11-07T13:05:18.954Z,2.80
2022-11-07T13:07:50.147Z,2.63
2022-11-07T13:10:21.196Z,2.65
2022-11-07T13:13:04.872Z,3.38
2022-11-07T13:15:47.529Z,3.10
2022-11-07T13:18:24.876Z,2.13
2022-11-07T13:21:01.185Z,2.28
2022-11-07T13:23:30.621Z,2.53
2022-11-07T13:26:06.968Z,2.45
2022-11-07T13:28:41.369Z,2.67
2022-11-07T13:31:27.805Z,2.90
2022-11-07T13:33:54.040Z,2.47
2022-11-07T13:36:27.136Z,1.83
2022-11-07T13:38:56.381Z,2.30
2022-11-07T13:41:22.915Z,2.30
2022-11-07T13:43:50.762Z,1.92
2022-11-07T13:46:24.235Z,2.05
2022-11-07T13:48:54.905Z,1.63
2022-11-07T13:51:35.178Z,2.20
2022-11-07T13:54:05.060Z,2.33
2022-11-07T13:56:34.996Z,2.78
2022-11-07T13:59:03.091Z,2.05
2022-11-07T14:01:40.001Z,1.67
2022-11-07T14:04:14.809Z,2.22
2022-11-07T14:06:41.477Z,2.40
2022-11-07T14:09:07.818Z,2.15
2022-11-07T14:11:34.829Z,2.13
2022-11-07T14:16:30.572Z,2.63
2022-11-07T14:18:59.357Z,2.00
2022-11-07T14:21:30.415Z,2.58
2022-11-07T14:23:56.982Z,2.35
2022-11-07T14:26:32.624Z,3.00
2022-11-07T14:29:00.755Z,2.28
2022-11-07T14:31:29.402Z,3.00
2022-11-07T14:33:59.855Z,2.63
2022-11-07T14:36:26.966Z,2.63
2022-11-07T14:38:54.851Z,2.35
2022-11-07T14:41:22.490Z,2.08
2022-11-07T14:43:49.456Z,2.63
2022-11-07T14:48:43.357Z,2.17
2022-11-07T14:51:13.095Z,2.47
2022-11-07T14:53:48.785Z,2.03
2022-11-07T14:56:17.204Z,2.45
2022-11-07T14:58:43.753Z,1.92
2022-11-07T15:01:11.617Z,2.28
2022-11-07T15:03:49.632Z,3.20
2022-11-07T15:06:20.595Z,3.30
2022-11-07T15:08:55.645Z,4.85
2022-11-07T15:11:25.255Z,5.47
2022-11-07T15:13:52.234Z,5.25
2022-11-07T15:18:46.871Z,3.60
2022-11-07T15:21:29.769Z,2.80
2022-11-07T15:23:56.298Z,2.38
2022-11-07T15:26:24.388Z,2.83
2022-11-07T15:28:52.191Z,3.08
2022-11-07T15:31:23.917Z,2.70
2022-11-07T15:33:51.163Z,2.63
2022-11-07T15:36:17.657Z,4.13
2022-11-07T15:38:44.140Z,6.97
2022-11-07T15:41:11.763Z,3.80
2022-11-07T15:43:38.509Z,3.90
2022-11-07T15:46:08.568Z,5.10
2022-11-07T15:48:41.049Z,2.80
2022-11-07T15:51:08.487Z,3.20
2022-11-07T15:53:34.773Z,2.55
2022-11-07T15:56:01.696Z,2.40
2022-11-07T16:00:54.269Z,3.13
2022-11-07T16:03:21.733Z,2.90
2022-11-07T16:05:48.986Z,3.45
2022-11-07T16:08:19.696Z,3.25
2022-11-07T16:10:48.006Z,4.05
2022-11-07T16:13:14.571Z,4.25
2022-11-07T16:15:43.499Z,3.95
2022-11-07T16:18:14.649Z,3.28
2022-11-07T16:20:40.972Z,6.53
2022-11-07T16:23:08.746Z,4.40
2022-11-07T16:25:36.021Z,4.13
2022-11-07T16:28:03.334Z,4.07
2022-11-07T16:30:29.836Z,3.47
2022-11-07T16:32:56.211Z,4.03
2022-11-07T16:35:23.260Z,3.42
2022-11-07T16:40:18.637Z,2.40
2022-11-07T16:42:45.571Z,3.22
2022-11-07T16:47:39.415Z,3.50
2022-11-07T16:50:06.203Z,3.67
2022-11-07T16:52:32.481Z,6.68
2022-11-07T16:54:59.147Z,2.95
2022-11-07T16:57:25.597Z,2.80
2022-11-07T16:59:52.621Z,2.63
2022-11-07T17:04:47.792Z,2.97
2022-11-07T17:07:14.994Z,5.22
2022-11-07T17:09:44.560Z,5.05
2022-11-07T17:12:15.210Z,5.95
2022-11-07T17:14:41.476Z,6.32
2022-11-07T17:17:07.781Z,6.22
2022-11-07T17:19:34.488Z,6.15
2022-11-07T17:22:02.940Z,9.02
2022-11-07T17:24:30.679Z,8.57
2022-11-07T17:26:57.743Z,4.60
2022-11-07T17:29:24.182Z,5.30
2022-11-07T17:31:50.446Z,4.80
2022-11-07T17:34:16.744Z,6.85
2022-11-07T17:36:47.139Z,11.13
2022-11-07T17:39:16.047Z,9.05
2022-11-07T17:41:43.231Z,8.75
2022-11-07T17:44:09.826Z,7.43
2022-11-07T17:46:37.049Z,9.02
2022-11-07T17:49:04.671Z,9.02
2022-11-07T17:51:31.031Z,9.40
2022-11-07T17:53:57.717Z,9.45
2022-11-07T17:56:27.643Z,7.13
2022-11-07T17:58:57.182Z,8.10
2022-11-07T18:01:24.449Z,6.05
2022-11-07T18:03:51.192Z,5.93
2022-11-07T18:06:17.692Z,5.50
2022-11-07T18:08:52.299Z,5.88
2022-11-07T18:11:20.019Z,6.70
2022-11-07T18:16:15.432Z,10.43
2022-11-07T18:18:41.909Z,8.65
2022-11-07T18:21:08.535Z,8.15
2022-11-07T18:23:35.312Z,7.55
2022-11-07T18:26:05.694Z,8.90
2022-11-07T18:28:32.431Z,11.32
2022-11-07T18:31:05.557Z,13.05
2022-11-07T18:33:31.984Z,9.57
2022-11-07T18:35:59.451Z,9.70
2022-11-07T18:38:25.918Z,8.80
2022-11-07T18:40:57.355Z,8.70
2022-11-07T18:43:23.591Z,8.88
2022-11-07T18:45:49.816Z,8.32
2022-11-07T18:48:16.455Z,11.65
2022-11-07T18:50:43.032Z,10.50
2022-11-07T18:53:09.311Z,9.45
2022-11-07T18:55:35.592Z,8.02
2022-11-07T18:58:01.841Z,6.55
2022-11-07T19:00:28.241Z,4.40
2022-11-07T19:02:54.541Z,3.38
2022-11-07T19:05:21.898Z,3.65
2022-11-07T19:07:48.671Z,4.18
2022-11-07T19:10:16.454Z,5.20
2022-11-07T19:12:42.792Z,5.57
2022-11-07T19:15:09.713Z,4.60
2022-11-07T19:17:36.127Z,4.65
2022-11-07T19:20:02.526Z,4.20
2022-11-07T19:22:30.105Z,5.47
2022-11-07T19:24:56.402Z,7.55
2022-11-07T19:27:22.851Z,12.85
2022-11-07T19:29:49.155Z,10.60
2022-11-07T19:32:15.502Z,6.15
2022-11-07T19:34:41.746Z,8.68
2022-11-07T19:37:07.996Z,8.02
2022-11-07T19:39:36.912Z,5.80
2022-11-07T19:42:04.144Z,3.78
2022-11-07T19:44:30.954Z,3.53
2022-11-07T19:46:57.306Z,3.92
2022-11-07T19:49:23.522Z,4.38
2022-11-07T19:51:52.120Z,3.78
2022-11-07T19:54:18.667Z,3.60
2022-11-07T19:56:44.911Z,3.88
2022-11-07T19:59:11.164Z,3.17
2022-11-07T20:01:39.324Z,3.80
2022-11-07T20:04:05.804Z,4.53
2022-11-07T20:06:35.292Z,5.22
2022-11-07T20:09:01.838Z,4.28
2022-11-07T20:11:28.569Z,5.72
2022-11-07T20:13:58.683Z,6.35
2022-11-07T20:16:28.295Z,6.68
2022-11-07T20:18:54.560Z,6.50
2022-11-07T20:21:22.126Z,5.10
2022-11-07T20:23:49.541Z,4.35
2022-11-07T20:26:17.204Z,4.28
2022-11-07T20:28:43.760Z,4.22
2022-11-07T20:31:14.061Z,4.75
2022-11-07T20:33:40.424Z,4.45
2022-11-07T20:36:08.299Z,3.72
2022-11-07T20:38:35.001Z,4.93
2022-11-07T20:41:01.991Z,6.38
2022-11-07T20:45:54.399Z,4.40
2022-11-07T20:48:21.087Z,3.47
2022-11-07T20:50:49.043Z,3.80
2022-11-07T20:53:16.006Z,4.50
2022-11-07T20:55:43.078Z,4.38
2022-11-07T20:58:10.201Z,3.78
2022-11-07T21:00:37.776Z,4.93
2022-11-07T21:03:04.051Z,4.82
2022-11-07T21:05:30.667Z,6.72
2022-11-07T21:07:56.945Z,5.55
2022-11-07T21:10:23.401Z,7.10
2022-11-07T21:12:49.700Z,5.45
2022-11-07T21:15:16.067Z,5.13
2022-11-07T21:17:42.311Z,4.53
2022-11-07T21:20:10.188Z,4.38
2022-11-07T21:22:36.567Z,4.50
2022-11-07T21:25:04.124Z,4.20
2022-11-07T21:27:34.092Z,4.45
2022-11-07T21:30:00.358Z,4.38
2022-11-07T21:32:26.625Z,4.97
2022-11-07T21:34:52.876Z,5.07
2022-11-07T21:37:19.283Z,5.60
2022-11-07T21:39:45.563Z,5.95
2022-11-07T21:42:12.660Z,6.28
2022-11-07T21:44:38.945Z,5.20
2022-11-07T21:47:05.190Z,5.03
2022-11-07T21:49:31.462Z,4.43
2022-11-07T21:51:57.774Z,4.70
2022-11-07T21:54:24.718Z,5.35
2022-11-07T21:56:50.949Z,6.10
2022-11-07T21:59:19.441Z,5.22
2022-11-07T22:01:48.495Z,5.70
2022-11-07T22:04:15.810Z,6.55
2022-11-07T22:06:43.775Z,7.03
2022-11-07T22:09:11.076Z,6.00
2022-11-07T22:11:37.313Z,4.47
2022-11-07T22:14:03.819Z,5.85
2022-11-07T22:16:30.177Z,8.00
2022-11-07T22:18:57.903Z,6.75
2022-11-07T22:21:24.165Z,6.47
2022-11-07T22:23:50.820Z,6.35
2022-11-07T22:26:18.481Z,5.90
2022-11-07T22:28:46.371Z,6.35
2022-11-07T22:31:14.235Z,6.05
2022-11-07T22:33:40.473Z,5.28
2022-11-07T22:36:07.678Z,6.13
2022-11-07T22:38:34.531Z,5.47
2022-11-07T22:41:00.836Z,5.90
2022-11-07T22:43:29.293Z,7.07
2022-11-07T22:45:55.543Z,10.68
2022-11-07T22:48:21.774Z,12.30
2022-11-07T22:50:48.054Z,11.48
2022-11-07T22:53:14.501Z,9.57
2022-11-07T22:55:40.956Z,8.85
2022-11-07T22:58:07.230Z,8.35
2022-11-07T23:00:33.553Z,7.13
2022-11-07T23:02:59.901Z,6.65
2022-11-07T23:05:26.199Z,6.78
2022-11-07T23:07:53.607Z,7.25
2022-11-07T23:10:20.279Z,7.28
2022-11-07T23:12:46.636Z,6.43
2022-11-07T23:15:13.038Z,5.43
2022-11-07T23:17:40.167Z,4.88
2022-11-07T23:20:07.662Z,4.18
2022-11-07T23:22:33.956Z,5.25
2022-11-07T23:25:00.570Z,3.88
2022-11-07T23:27:26.826Z,4.15
2022-11-07T23:29:53.089Z,4.28
2022-11-07T23:32:19.418Z,4.32
2022-11-07T23:34:45.681Z,4.10
2022-11-07T23:37:15.121Z,4.82
2022-11-07T23:39:44.402Z,3.95
2022-11-07T23:42:11.004Z,4.20
2022-11-07T23:44:55.784Z,5.03
2022-11-07T23:47:40.545Z,4.32
2022-11-07T23:50:25.746Z,13.73
2022-11-07T23:52:52.136Z,13.73
2022-11-07T23:55:36.809Z,11.00
2022-11-07T23:58:21.660Z,16.65
